sensor_id;sensor_type;location;lat;lon;timestamp;temperature;humidity
17599;DHT22;8918;52.092;5.232;2023-06-10T00:00:00;22.20;99.90
17599;DHT22;8918;52.092;5.232;2023-06-10T00:02:26;22.20;99.90
17599;DHT22;8918;52.092;5.232;2023-06-10T00:04:52;22.20;99.90
17599;DHT22;8918;52.092;5.232;2023-06-10T00:07:18;22.10;99.90
17599;DHT22;8918;52.092;5.232;2023-06-10T00:09:43;22.00;99.90
17599;DHT22;8918;52.092;5.232;2023-06-10T00:12:09;22.10;99.90
17599;DHT22;8918;52.092;5.232;2023-06-10T00:14:39;22.00;99.90
17599;DHT22;8918;52.092;5.232;2023-06-10T00:17:06;22.00;99.90
17599;DHT22;8918;52.092;5.232;2023-06-10T00:19:35;21.90;99.90
17599;DHT22;8918;52.092;5.232;2023-06-10T00:22:00;21.90;99.90
17599;DHT22;8918;52.092;5.232;2023-06-10T00:24:26;21.80;99.90
17599;DHT22;8918;52.092;5.232;2023-06-10T00:26:51;21.80;99.90
17599;DHT22;8918;52.092;5.232;2023-06-10T00:29:17;21.80;99.90
17599;DHT22;8918;52.092;5.232;2023-06-10T00:31:45;21.80;99.90
17599;DHT22;8918;52.092;5.232;2023-06-10T00:34:11;21.80;99.90
17599;DHT22;8918;52.092;5.232;2023-06-10T00:36:37;21.80;99.90
17599;DHT22;8918;52.092;5.232;2023-06-10T00:39:02;21.70;99.90
17599;DHT22;8918;52.092;5.232;2023-06-10T00:41:30;21.70;99.90
17599;DHT22;8918;52.092;5.232;2023-06-10T00:43:56;21.70;99.90
17599;DHT22;8918;52.092;5.232;2023-06-10T00:46:23;21.60;99.90
17599;DHT22;8918;52.092;5.232;2023-06-10T00:48:49;21.60;99.90
17599;DHT22;8918;52.092;5.232;2023-06-10T00:51:19;21.50;99.90
17599;DHT22;8918;52.092;5.232;2023-06-10T00:53:45;21.50;99.90
17599;DHT22;8918;52.092;5.232;2023-06-10T00:56:11;21.50;99.90
17599;DHT22;8918;52.092;5.232;2023-06-10T00:58:37;21.40;99.90
17599;DHT22;8918;52.092;5.232;2023-06-10T01:01:02;21.40;99.90
17599;DHT22;8918;52.092;5.232;2023-06-10T01:03:29;21.30;99.90
17599;DHT22;8918;52.092;5.232;2023-06-10T01:06:14;21.20;99.90
17599;DHT22;8918;52.092;5.232;2023-06-10T01:08:57;21.20;99.90
17599;DHT22;8918;52.092;5.232;2023-06-10T01:11:36;21.20;99.90
17599;DHT22;8918;52.092;5.232;2023-06-10T01:14:03;21.10;99.90
17599;DHT22;8918;52.092;5.232;2023-06-10T01:16:30;21.00;99.90
17599;DHT22;8918;52.092;5.232;2023-06-10T01:18:56;21.00;99.90
17599;DHT22;8918;52.092;5.232;2023-06-10T01:21:22;21.00;99.90
17599;DHT22;8918;52.092;5.232;2023-06-10T01:23:53;21.00;99.90
17599;DHT22;8918;52.092;5.232;2023-06-10T01:26:24;21.00;99.90
17599;DHT22;8918;52.092;5.232;2023-06-10T01:28:58;21.00;99.90
17599;DHT22;8918;52.092;5.232;2023-06-10T01:31:38;21.00;99.90
17599;DHT22;8918;52.092;5.232;2023-06-10T01:34:17;20.90;99.90
17599;DHT22;8918;52.092;5.232;2023-06-10T01:36:48;20.90;99.90
17599;DHT22;8918;52.092;5.232;2023-06-10T01:39:21;20.90;99.90
17599;DHT22;8918;52.092;5.232;2023-06-10T01:41:48;20.90;99.90
17599;DHT22;8918;52.092;5.232;2023-06-10T01:44:21;20.80;99.90
17599;DHT22;8918;52.092;5.232;2023-06-10T01:46:46;20.80;99.90
17599;DHT22;8918;52.092;5.232;2023-06-10T01:49:12;20.70;99.90
17599;DHT22;8918;52.092;5.232;2023-06-10T01:51:39;20.80;99.90
17599;DHT22;8918;52.092;5.232;2023-06-10T01:54:04;20.70;99.90
17599;DHT22;8918;52.092;5.232;2023-06-10T01:56:31;20.70;99.90
17599;DHT22;8918;52.092;5.232;2023-06-10T01:58:57;20.70;99.90
17599;DHT22;8918;52.092;5.232;2023-06-10T02:01:25;20.70;99.90
17599;DHT22;8918;52.092;5.232;2023-06-10T02:03:50;20.60;99.90
17599;DHT22;8918;52.092;5.232;2023-06-10T02:06:16;20.60;99.90
17599;DHT22;8918;52.092;5.232;2023-06-10T02:08:41;20.60;99.90
17599;DHT22;8918;52.092;5.232;2023-06-10T02:11:07;20.60;99.90
17599;DHT22;8918;52.092;5.232;2023-06-10T02:13:33;20.50;99.90
17599;DHT22;8918;52.092;5.232;2023-06-10T02:15:58;20.50;99.90
17599;DHT22;8918;52.092;5.232;2023-06-10T02:18:25;20.50;99.90
17599;DHT22;8918;52.092;5.232;2023-06-10T02:20:52;20.50;99.90
17599;DHT22;8918;52.092;5.232;2023-06-10T02:23:17;20.40;99.90
17599;DHT22;8918;52.092;5.232;2023-06-10T02:25:43;20.40;99.90
17599;DHT22;8918;52.092;5.232;2023-06-10T02:28:09;20.40;99.90
17599;DHT22;8918;52.092;5.232;2023-06-10T02:30:34;20.30;99.90
17599;DHT22;8918;52.092;5.232;2023-06-10T02:33:00;20.30;99.90
17599;DHT22;8918;52.092;5.232;2023-06-10T02:35:26;20.30;99.90
17599;DHT22;8918;52.092;5.232;2023-06-10T02:37:52;20.30;99.90
17599;DHT22;8918;52.092;5.232;2023-06-10T02:40:17;20.30;99.90
17599;DHT22;8918;52.092;5.232;2023-06-10T02:42:43;20.20;99.90
17599;DHT22;8918;52.092;5.232;2023-06-10T02:45:09;20.20;99.90
17599;DHT22;8918;52.092;5.232;2023-06-10T02:47:34;20.20;99.90
17599;DHT22;8918;52.092;5.232;2023-06-10T02:50:00;20.20;99.90
17599;DHT22;8918;52.092;5.232;2023-06-10T02:52:25;20.20;99.90
17599;DHT22;8918;52.092;5.232;2023-06-10T02:54:51;20.10;99.90
17599;DHT22;8918;52.092;5.232;2023-06-10T02:57:17;20.10;99.90
17599;DHT22;8918;52.092;5.232;2023-06-10T02:59:42;20.10;99.90
17599;DHT22;8918;52.092;5.232;2023-06-10T03:02:08;20.00;99.90
17599;DHT22;8918;52.092;5.232;2023-06-10T03:04:33;20.00;99.90
17599;DHT22;8918;52.092;5.232;2023-06-10T03:06:59;20.00;99.90
17599;DHT22;8918;52.092;5.232;2023-06-10T03:09:29;19.90;99.90
17599;DHT22;8918;52.092;5.232;2023-06-10T03:11:54;19.90;99.90
17599;DHT22;8918;52.092;5.232;2023-06-10T03:14:20;19.80;99.90
17599;DHT22;8918;52.092;5.232;2023-06-10T03:16:45;19.80;99.90
17599;DHT22;8918;52.092;5.232;2023-06-10T03:19:11;19.80;99.90
17599;DHT22;8918;52.092;5.232;2023-06-10T03:21:36;19.80;99.90
17599;DHT22;8918;52.092;5.232;2023-06-10T03:24:03;19.80;99.90
17599;DHT22;8918;52.092;5.232;2023-06-10T03:26:28;19.70;99.90
17599;DHT22;8918;52.092;5.232;2023-06-10T03:28:54;19.70;99.90
17599;DHT22;8918;52.092;5.232;2023-06-10T03:31:19;19.70;99.90
17599;DHT22;8918;52.092;5.232;2023-06-10T03:33:45;19.60;99.90
17599;DHT22;8918;52.092;5.232;2023-06-10T03:36:11;19.60;99.90
17599;DHT22;8918;52.092;5.232;2023-06-10T03:38:36;19.60;99.90
17599;DHT22;8918;52.092;5.232;2023-06-10T03:41:02;19.60;99.90
17599;DHT22;8918;52.092;5.232;2023-06-10T03:43:28;19.60;99.90
17599;DHT22;8918;52.092;5.232;2023-06-10T03:45:54;19.50;99.90
17599;DHT22;8918;52.092;5.232;2023-06-10T03:48:19;19.50;99.90
17599;DHT22;8918;52.092;5.232;2023-06-10T03:50:45;19.50;99.90
17599;DHT22;8918;52.092;5.232;2023-06-10T03:53:12;19.50;99.90
17599;DHT22;8918;52.092;5.232;2023-06-10T03:55:38;19.50;99.90
17599;DHT22;8918;52.092;5.232;2023-06-10T03:58:03;19.50;99.90
17599;DHT22;8918;52.092;5.232;2023-06-10T04:00:29;19.50;99.90
17599;DHT22;8918;52.092;5.232;2023-06-10T04:02:55;19.50;99.90
17599;DHT22;8918;52.092;5.232;2023-06-10T04:05:23;19.50;99.90
17599;DHT22;8918;52.092;5.232;2023-06-10T04:07:49;19.50;99.90
17599;DHT22;8918;52.092;5.232;2023-06-10T04:10:15;19.50;99.90
17599;DHT22;8918;52.092;5.232;2023-06-10T04:12:41;19.50;99.90
17599;DHT22;8918;52.092;5.232;2023-06-10T04:15:07;19.50;99.90
17599;DHT22;8918;52.092;5.232;2023-06-10T04:17:33;19.50;99.90
17599;DHT22;8918;52.092;5.232;2023-06-10T04:19:59;19.40;99.90
17599;DHT22;8918;52.092;5.232;2023-06-10T04:22:25;19.40;99.90
17599;DHT22;8918;52.092;5.232;2023-06-10T04:24:51;19.40;99.90
17599;DHT22;8918;52.092;5.232;2023-06-10T04:27:17;19.40;99.90
17599;DHT22;8918;52.092;5.232;2023-06-10T04:29:43;19.50;99.90
17599;DHT22;8918;52.092;5.232;2023-06-10T04:32:08;19.40;99.90
17599;DHT22;8918;52.092;5.232;2023-06-10T04:34:34;19.40;99.90
17599;DHT22;8918;52.092;5.232;2023-06-10T04:37:00;19.50;99.90
17599;DHT22;8918;52.092;5.232;2023-06-10T04:39:25;19.50;99.90
17599;DHT22;8918;52.092;5.232;2023-06-10T04:41:51;19.50;99.90
17599;DHT22;8918;52.092;5.232;2023-06-10T04:44:17;19.50;99.90
17599;DHT22;8918;52.092;5.232;2023-06-10T04:46:42;19.50;99.90
17599;DHT22;8918;52.092;5.232;2023-06-10T04:49:08;19.50;99.90
17599;DHT22;8918;52.092;5.232;2023-06-10T04:51:33;19.50;99.90
17599;DHT22;8918;52.092;5.232;2023-06-10T04:53:59;19.50;99.90
17599;DHT22;8918;52.092;5.232;2023-06-10T04:56:29;19.50;99.90
17599;DHT22;8918;52.092;5.232;2023-06-10T04:58:56;19.50;99.90
17599;DHT22;8918;52.092;5.232;2023-06-10T05:01:22;19.50;99.90
17599;DHT22;8918;52.092;5.232;2023-06-10T05:03:47;19.50;99.90
17599;DHT22;8918;52.092;5.232;2023-06-10T05:06:13;19.50;99.90
17599;DHT22;8918;52.092;5.232;2023-06-10T05:08:38;19.60;99.90
17599;DHT22;8918;52.092;5.232;2023-06-10T05:11:04;19.60;99.90
17599;DHT22;8918;52.092;5.232;2023-06-10T05:13:29;19.60;99.90
17599;DHT22;8918;52.092;5.232;2023-06-10T05:15:55;19.70;99.90
17599;DHT22;8918;52.092;5.232;2023-06-10T05:18:20;19.70;99.90
17599;DHT22;8918;52.092;5.232;2023-06-10T05:20:46;19.70;99.90
17599;DHT22;8918;52.092;5.232;2023-06-10T05:23:12;19.70;99.90
17599;DHT22;8918;52.092;5.232;2023-06-10T05:25:38;19.70;99.90
17599;DHT22;8918;52.092;5.232;2023-06-10T05:28:03;19.70;99.90
17599;DHT22;8918;52.092;5.232;2023-06-10T05:30:29;19.80;99.90
17599;DHT22;8918;52.092;5.232;2023-06-10T05:32:54;19.80;99.90
17599;DHT22;8918;52.092;5.232;2023-06-10T05:35:21;19.80;99.90
17599;DHT22;8918;52.092;5.232;2023-06-10T05:37:48;19.90;99.90
17599;DHT22;8918;52.092;5.232;2023-06-10T05:40:13;19.90;99.90
17599;DHT22;8918;52.092;5.232;2023-06-10T05:42:39;19.90;99.90
17599;DHT22;8918;52.092;5.232;2023-06-10T05:45:06;19.90;99.90
17599;DHT22;8918;52.092;5.232;2023-06-10T05:47:32;19.90;99.90
17599;DHT22;8918;52.092;5.232;2023-06-10T05:49:57;20.00;99.90
17599;DHT22;8918;52.092;5.232;2023-06-10T05:52:23;20.00;99.90
17599;DHT22;8918;52.092;5.232;2023-06-10T05:54:49;20.00;99.90
17599;DHT22;8918;52.092;5.232;2023-06-10T05:57:15;20.10;99.90
17599;DHT22;8918;52.092;5.232;2023-06-10T05:59:41;20.10;99.90
17599;DHT22;8918;52.092;5.232;2023-06-10T06:02:06;20.20;99.90
17599;DHT22;8918;52.092;5.232;2023-06-10T06:04:32;20.30;99.90
17599;DHT22;8918;52.092;5.232;2023-06-10T06:06:58;20.40;99.90
17599;DHT22;8918;52.092;5.232;2023-06-10T06:09:23;20.40;99.90
17599;DHT22;8918;52.092;5.232;2023-06-10T06:11:49;20.50;99.90
17599;DHT22;8918;52.092;5.232;2023-06-10T06:14:14;20.50;99.90
17599;DHT22;8918;52.092;5.232;2023-06-10T06:16:40;20.60;99.90
17599;DHT22;8918;52.092;5.232;2023-06-10T06:19:06;20.70;99.90
17599;DHT22;8918;52.092;5.232;2023-06-10T06:21:31;20.70;99.90
17599;DHT22;8918;52.092;5.232;2023-06-10T06:23:57;20.70;99.90
17599;DHT22;8918;52.092;5.232;2023-06-10T06:26:23;20.80;99.90
17599;DHT22;8918;52.092;5.232;2023-06-10T06:28:48;20.80;99.90
17599;DHT22;8918;52.092;5.232;2023-06-10T06:31:14;20.90;99.90
17599;DHT22;8918;52.092;5.232;2023-06-10T06:33:40;20.90;99.90
17599;DHT22;8918;52.092;5.232;2023-06-10T06:36:05;21.00;99.90
17599;DHT22;8918;52.092;5.232;2023-06-10T06:38:31;21.00;99.90
17599;DHT22;8918;52.092;5.232;2023-06-10T06:40:57;21.10;99.90
17599;DHT22;8918;52.092;5.232;2023-06-10T06:43:28;21.20;99.90
17599;DHT22;8918;52.092;5.232;2023-06-10T06:45:53;21.30;99.90
17599;DHT22;8918;52.092;5.232;2023-06-10T06:48:19;21.30;99.90
17599;DHT22;8918;52.092;5.232;2023-06-10T06:50:45;21.40;99.90
17599;DHT22;8918;52.092;5.232;2023-06-10T06:53:10;21.50;99.90
17599;DHT22;8918;52.092;5.232;2023-06-10T06:55:36;21.50;99.90
17599;DHT22;8918;52.092;5.232;2023-06-10T06:58:01;21.60;99.90
17599;DHT22;8918;52.092;5.232;2023-06-10T07:00:29;21.70;99.90
17599;DHT22;8918;52.092;5.232;2023-06-10T07:02:55;21.80;99.90
17599;DHT22;8918;52.092;5.232;2023-06-10T07:05:22;21.80;99.90
17599;DHT22;8918;52.092;5.232;2023-06-10T07:07:48;21.90;99.90
17599;DHT22;8918;52.092;5.232;2023-06-10T07:10:19;21.90;99.90
17599;DHT22;8918;52.092;5.232;2023-06-10T07:12:45;22.00;99.90
17599;DHT22;8918;52.092;5.232;2023-06-10T07:15:11;22.00;99.90
17599;DHT22;8918;52.092;5.232;2023-06-10T07:17:36;22.10;99.90
17599;DHT22;8918;52.092;5.232;2023-06-10T07:20:02;22.10;99.90
17599;DHT22;8918;52.092;5.232;2023-06-10T07:22:28;22.20;99.90
17599;DHT22;8918;52.092;5.232;2023-06-10T07:24:53;22.30;99.90
17599;DHT22;8918;52.092;5.232;2023-06-10T07:27:20;22.30;99.90
17599;DHT22;8918;52.092;5.232;2023-06-10T07:29:46;22.40;99.90
17599;DHT22;8918;52.092;5.232;2023-06-10T07:32:11;22.40;99.90
17599;DHT22;8918;52.092;5.232;2023-06-10T07:34:37;22.50;99.90
17599;DHT22;8918;52.092;5.232;2023-06-10T07:37:02;22.60;99.90
17599;DHT22;8918;52.092;5.232;2023-06-10T07:39:28;22.60;99.90
17599;DHT22;8918;52.092;5.232;2023-06-10T07:41:54;22.70;99.90
17599;DHT22;8918;52.092;5.232;2023-06-10T07:44:22;22.80;99.90
17599;DHT22;8918;52.092;5.232;2023-06-10T07:46:48;22.90;99.90
17599;DHT22;8918;52.092;5.232;2023-06-10T07:49:14;23.00;99.90
17599;DHT22;8918;52.092;5.232;2023-06-10T07:51:40;23.00;99.90
17599;DHT22;8918;52.092;5.232;2023-06-10T07:54:05;23.10;99.90
17599;DHT22;8918;52.092;5.232;2023-06-10T07:56:31;23.30;99.90
17599;DHT22;8918;52.092;5.232;2023-06-10T07:58:57;23.30;99.90
17599;DHT22;8918;52.092;5.232;2023-06-10T08:01:23;23.40;99.90
17599;DHT22;8918;52.092;5.232;2023-06-10T08:03:49;23.50;99.90
17599;DHT22;8918;52.092;5.232;2023-06-10T08:06:15;23.60;99.90
17599;DHT22;8918;52.092;5.232;2023-06-10T08:08:42;23.70;99.90
17599;DHT22;8918;52.092;5.232;2023-06-10T08:11:12;23.80;99.90
17599;DHT22;8918;52.092;5.232;2023-06-10T08:13:38;23.90;99.90
17599;DHT22;8918;52.092;5.232;2023-06-10T08:16:05;23.90;99.90
17599;DHT22;8918;52.092;5.232;2023-06-10T08:18:31;24.00;99.90
17599;DHT22;8918;52.092;5.232;2023-06-10T08:20:59;24.10;99.90
17599;DHT22;8918;52.092;5.232;2023-06-10T08:23:25;24.20;99.90
17599;DHT22;8918;52.092;5.232;2023-06-10T08:25:51;24.30;99.90
17599;DHT22;8918;52.092;5.232;2023-06-10T08:28:16;24.30;99.90
17599;DHT22;8918;52.092;5.232;2023-06-10T08:30:42;24.50;99.90
17599;DHT22;8918;52.092;5.232;2023-06-10T08:33:08;24.50;99.90
17599;DHT22;8918;52.092;5.232;2023-06-10T08:35:33;24.60;99.90
17599;DHT22;8918;52.092;5.232;2023-06-10T08:37:59;24.70;99.90
17599;DHT22;8918;52.092;5.232;2023-06-10T08:40:25;24.80;99.90
17599;DHT22;8918;52.092;5.232;2023-06-10T08:43:03;24.90;99.90
17599;DHT22;8918;52.092;5.232;2023-06-10T08:45:31;25.00;99.90
17599;DHT22;8918;52.092;5.232;2023-06-10T08:47:57;25.10;99.90
17599;DHT22;8918;52.092;5.232;2023-06-10T08:50:23;25.20;99.90
17599;DHT22;8918;52.092;5.232;2023-06-10T08:52:52;25.20;99.90
17599;DHT22;8918;52.092;5.232;2023-06-10T08:55:25;25.30;99.90
17599;DHT22;8918;52.092;5.232;2023-06-10T08:57:52;25.30;99.90
17599;DHT22;8918;52.092;5.232;2023-06-10T09:00:19;25.40;99.90
17599;DHT22;8918;52.092;5.232;2023-06-10T09:02:44;25.60;99.90
17599;DHT22;8918;52.092;5.232;2023-06-10T09:05:11;25.60;99.90
17599;DHT22;8918;52.092;5.232;2023-06-10T09:07:37;25.70;99.90
17599;DHT22;8918;52.092;5.232;2023-06-10T09:10:04;25.80;99.90
17599;DHT22;8918;52.092;5.232;2023-06-10T09:12:35;25.90;99.90
17599;DHT22;8918;52.092;5.232;2023-06-10T09:15:01;26.10;99.90
17599;DHT22;8918;52.092;5.232;2023-06-10T09:17:27;26.20;99.90
17599;DHT22;8918;52.092;5.232;2023-06-10T09:19:53;26.30;99.90
17599;DHT22;8918;52.092;5.232;2023-06-10T09:22:23;26.40;99.90
17599;DHT22;8918;52.092;5.232;2023-06-10T09:24:49;26.40;99.90
17599;DHT22;8918;52.092;5.232;2023-06-10T09:27:15;26.50;99.90
17599;DHT22;8918;52.092;5.232;2023-06-10T09:32:14;26.80;99.90
17599;DHT22;8918;52.092;5.232;2023-06-10T09:34:40;26.90;99.90
17599;DHT22;8918;52.092;5.232;2023-06-10T09:37:06;27.00;99.90
17599;DHT22;8918;52.092;5.232;2023-06-10T09:39:33;27.20;99.90
17599;DHT22;8918;52.092;5.232;2023-06-10T09:41:59;27.30;99.90
17599;DHT22;8918;52.092;5.232;2023-06-10T09:44:25;27.30;99.90
17599;DHT22;8918;52.092;5.232;2023-06-10T09:46:50;27.40;99.90
17599;DHT22;8918;52.092;5.232;2023-06-10T09:49:17;27.50;99.90
17599;DHT22;8918;52.092;5.232;2023-06-10T09:51:53;27.70;99.90
17599;DHT22;8918;52.092;5.232;2023-06-10T09:54:19;27.80;99.90
17599;DHT22;8918;52.092;5.232;2023-06-10T09:56:50;27.90;99.60
17599;DHT22;8918;52.092;5.232;2023-06-10T09:59:28;27.90;99.00
17599;DHT22;8918;52.092;5.232;2023-06-10T10:01:57;28.10;98.90
17599;DHT22;8918;52.092;5.232;2023-06-10T10:04:25;28.10;98.70
17599;DHT22;8918;52.092;5.232;2023-06-10T10:06:51;28.20;98.40
17599;DHT22;8918;52.092;5.232;2023-06-10T10:09:17;28.30;98.00
17599;DHT22;8918;52.092;5.232;2023-06-10T10:11:44;28.40;97.60
17599;DHT22;8918;52.092;5.232;2023-06-10T10:14:10;28.50;97.60
17599;DHT22;8918;52.092;5.232;2023-06-10T10:16:37;28.60;96.70
17599;DHT22;8918;52.092;5.232;2023-06-10T10:19:18;28.70;97.00
17599;DHT22;8918;52.092;5.232;2023-06-10T10:21:52;28.80;96.60
17599;DHT22;8918;52.092;5.232;2023-06-10T10:24:21;28.90;96.40
17599;DHT22;8918;52.092;5.232;2023-06-10T10:26:48;29.10;96.60
17599;DHT22;8918;52.092;5.232;2023-06-10T10:31:54;29.30;95.60
17599;DHT22;8918;52.092;5.232;2023-06-10T10:36:58;29.50;94.60
17599;DHT22;8918;52.092;5.232;2023-06-10T10:39:25;29.70;94.80
17599;DHT22;8918;52.092;5.232;2023-06-10T10:41:53;29.80;95.00
17599;DHT22;8918;52.092;5.232;2023-06-10T10:44:20;29.80;94.90
17599;DHT22;8918;52.092;5.232;2023-06-10T10:46:50;29.90;94.50
17599;DHT22;8918;52.092;5.232;2023-06-10T10:49:17;30.00;95.00
17599;DHT22;8918;52.092;5.232;2023-06-10T10:51:59;30.10;94.30
17599;DHT22;8918;52.092;5.232;2023-06-10T10:54:33;30.20;94.30
17599;DHT22;8918;52.092;5.232;2023-06-10T10:57:22;30.30;94.70
17599;DHT22;8918;52.092;5.232;2023-06-10T11:02:17;30.40;93.70
17599;DHT22;8918;52.092;5.232;2023-06-10T11:04:47;30.40;93.80
17599;DHT22;8918;52.092;5.232;2023-06-10T11:07:13;30.40;93.90
17599;DHT22;8918;52.092;5.232;2023-06-10T11:15:12;30.60;93.50
17599;DHT22;8918;52.092;5.232;2023-06-10T11:31:27;30.80;92.60
17599;DHT22;8918;52.092;5.232;2023-06-10T11:33:55;30.90;93.00
17599;DHT22;8918;52.092;5.232;2023-06-10T11:36:21;31.00;93.30
17599;DHT22;8918;52.092;5.232;2023-06-10T11:38:48;31.10;93.50
17599;DHT22;8918;52.092;5.232;2023-06-10T11:41:14;31.10;93.10
17599;DHT22;8918;52.092;5.232;2023-06-10T11:43:44;31.20;92.50
17599;DHT22;8918;52.092;5.232;2023-06-10T11:46:14;31.10;92.30
17599;DHT22;8918;52.092;5.232;2023-06-10T11:48:54;31.10;92.20
17599;DHT22;8918;52.092;5.232;2023-06-10T11:51:20;31.20;92.20
17599;DHT22;8918;52.092;5.232;2023-06-10T11:53:49;31.10;92.30
17599;DHT22;8918;52.092;5.232;2023-06-10T11:56:28;31.20;91.80
17599;DHT22;8918;52.092;5.232;2023-06-10T11:58:55;31.10;91.90
17599;DHT22;8918;52.092;5.232;2023-06-10T12:01:23;31.20;91.30
17599;DHT22;8918;52.092;5.232;2023-06-10T12:04:03;31.20;91.50
17599;DHT22;8918;52.092;5.232;2023-06-10T12:06:42;31.20;91.20
17599;DHT22;8918;52.092;5.232;2023-06-10T12:09:19;31.20;90.80
17599;DHT22;8918;52.092;5.232;2023-06-10T12:11:45;31.30;90.90
17599;DHT22;8918;52.092;5.232;2023-06-10T12:14:13;31.40;91.00
17599;DHT22;8918;52.092;5.232;2023-06-10T12:16:39;31.40;91.00
17599;DHT22;8918;52.092;5.232;2023-06-10T12:19:05;31.50;91.00
17599;DHT22;8918;52.092;5.232;2023-06-10T12:21:33;31.60;91.20
17599;DHT22;8918;52.092;5.232;2023-06-10T12:26:43;31.70;90.60
17599;DHT22;8918;52.092;5.232;2023-06-10T12:29:23;31.70;90.70
17599;DHT22;8918;52.092;5.232;2023-06-10T12:32:02;31.70;90.80
17599;DHT22;8918;52.092;5.232;2023-06-10T12:34:38;31.70;90.80
17599;DHT22;8918;52.092;5.232;2023-06-10T12:37:05;31.70;90.60
17599;DHT22;8918;52.092;5.232;2023-06-10T12:39:32;31.70;90.50
17599;DHT22;8918;52.092;5.232;2023-06-10T12:41:59;31.70;90.10
17599;DHT22;8918;52.092;5.232;2023-06-10T12:44:34;31.80;89.70
17599;DHT22;8918;52.092;5.232;2023-06-10T12:47:06;31.70;90.40
17599;DHT22;8918;52.092;5.232;2023-06-10T12:49:32;31.80;90.50
17599;DHT22;8918;52.092;5.232;2023-06-10T12:51:57;31.90;90.30
17599;DHT22;8918;52.092;5.232;2023-06-10T12:54:24;31.90;89.60
17599;DHT22;8918;52.092;5.232;2023-06-10T12:56:50;31.90;89.20
17599;DHT22;8918;52.092;5.232;2023-06-10T12:59:16;31.90;89.90
17599;DHT22;8918;52.092;5.232;2023-06-10T13:01:42;32.00;89.20
17599;DHT22;8918;52.092;5.232;2023-06-10T13:04:07;32.00;89.40
17599;DHT22;8918;52.092;5.232;2023-06-10T13:06:33;32.00;89.40
17599;DHT22;8918;52.092;5.232;2023-06-10T13:09:02;32.00;88.70
17599;DHT22;8918;52.092;5.232;2023-06-10T13:11:28;32.00;89.40
17599;DHT22;8918;52.092;5.232;2023-06-10T13:13:53;32.00;88.90
17599;DHT22;8918;52.092;5.232;2023-06-10T13:16:19;32.00;89.30
17599;DHT22;8918;52.092;5.232;2023-06-10T13:18:45;32.00;88.40
17599;DHT22;8918;52.092;5.232;2023-06-10T13:21:11;32.00;88.20
17599;DHT22;8918;52.092;5.232;2023-06-10T13:23:37;32.00;87.90
17599;DHT22;8918;52.092;5.232;2023-06-10T13:26:02;32.00;87.80
17599;DHT22;8918;52.092;5.232;2023-06-10T13:28:28;32.10;87.40
17599;DHT22;8918;52.092;5.232;2023-06-10T13:30:54;32.10;88.00
17599;DHT22;8918;52.092;5.232;2023-06-10T13:33:19;32.20;87.00
17599;DHT22;8918;52.092;5.232;2023-06-10T13:35:45;32.20;85.50
17599;DHT22;8918;52.092;5.232;2023-06-10T13:38:10;32.10;87.00
17599;DHT22;8918;52.092;5.232;2023-06-10T13:40:36;32.10;86.90
17599;DHT22;8918;52.092;5.232;2023-06-10T13:43:01;32.00;87.20
17599;DHT22;8918;52.092;5.232;2023-06-10T13:45:27;32.20;86.90
17599;DHT22;8918;52.092;5.232;2023-06-10T13:47:53;32.20;87.00
17599;DHT22;8918;52.092;5.232;2023-06-10T13:50:19;32.20;86.60
17599;DHT22;8918;52.092;5.232;2023-06-10T13:52:45;32.30;86.70
17599;DHT22;8918;52.092;5.232;2023-06-10T13:55:10;32.30;86.30
17599;DHT22;8918;52.092;5.232;2023-06-10T13:57:36;32.40;86.40
17599;DHT22;8918;52.092;5.232;2023-06-10T14:00:02;32.30;86.90
17599;DHT22;8918;52.092;5.232;2023-06-10T14:02:27;32.40;86.80
17599;DHT22;8918;52.092;5.232;2023-06-10T14:04:53;32.50;86.10
17599;DHT22;8918;52.092;5.232;2023-06-10T14:07:18;32.50;85.80
17599;DHT22;8918;52.092;5.232;2023-06-10T14:09:44;32.50;85.80
17599;DHT22;8918;52.092;5.232;2023-06-10T14:12:10;32.50;86.70
17599;DHT22;8918;52.092;5.232;2023-06-10T14:14:36;32.70;85.30
17599;DHT22;8918;52.092;5.232;2023-06-10T14:17:02;32.80;85.10
17599;DHT22;8918;52.092;5.232;2023-06-10T14:19:30;32.90;85.70
17599;DHT22;8918;52.092;5.232;2023-06-10T14:21:55;33.10;85.30
17599;DHT22;8918;52.092;5.232;2023-06-10T14:24:21;33.00;84.10
17599;DHT22;8918;52.092;5.232;2023-06-10T14:26:47;33.00;84.10
17599;DHT22;8918;52.092;5.232;2023-06-10T14:29:13;32.90;84.10
17599;DHT22;8918;52.092;5.232;2023-06-10T14:31:42;32.90;84.30
17599;DHT22;8918;52.092;5.232;2023-06-10T14:34:07;32.80;84.20
17599;DHT22;8918;52.092;5.232;2023-06-10T14:36:34;32.70;83.10
17599;DHT22;8918;52.092;5.232;2023-06-10T14:38:59;32.70;84.30
17599;DHT22;8918;52.092;5.232;2023-06-10T14:41:25;32.70;84.10
17599;DHT22;8918;52.092;5.232;2023-06-10T14:43:51;32.80;83.60
17599;DHT22;8918;52.092;5.232;2023-06-10T14:46:17;32.70;83.10
17599;DHT22;8918;52.092;5.232;2023-06-10T14:48:43;32.70;82.80
17599;DHT22;8918;52.092;5.232;2023-06-10T14:51:09;32.80;83.30
17599;DHT22;8918;52.092;5.232;2023-06-10T14:53:34;32.90;83.00
17599;DHT22;8918;52.092;5.232;2023-06-10T14:56:00;33.00;83.00
17599;DHT22;8918;52.092;5.232;2023-06-10T14:58:25;33.20;82.00
17599;DHT22;8918;52.092;5.232;2023-06-10T15:00:51;33.40;81.60
17599;DHT22;8918;52.092;5.232;2023-06-10T15:03:17;33.60;81.40
17599;DHT22;8918;52.092;5.232;2023-06-10T15:05:42;33.70;80.60
17599;DHT22;8918;52.092;5.232;2023-06-10T15:08:08;33.60;80.50
17599;DHT22;8918;52.092;5.232;2023-06-10T15:10:33;33.70;81.20
17599;DHT22;8918;52.092;5.232;2023-06-10T15:12:59;33.70;80.70
17599;DHT22;8918;52.092;5.232;2023-06-10T15:15:25;33.70;80.80
17599;DHT22;8918;52.092;5.232;2023-06-10T15:17:53;33.90;80.40
17599;DHT22;8918;52.092;5.232;2023-06-10T15:20:19;34.00;79.90
17599;DHT22;8918;52.092;5.232;2023-06-10T15:22:45;34.10;80.10
17599;DHT22;8918;52.092;5.232;2023-06-10T15:25:11;34.20;78.50
17599;DHT22;8918;52.092;5.232;2023-06-10T15:27:36;34.10;78.50
17599;DHT22;8918;52.092;5.232;2023-06-10T15:30:02;34.00;79.90
17599;DHT22;8918;52.092;5.232;2023-06-10T15:32:28;33.80;79.20
17599;DHT22;8918;52.092;5.232;2023-06-10T15:34:54;33.90;80.60
17599;DHT22;8918;52.092;5.232;2023-06-10T15:37:20;34.00;79.60
17599;DHT22;8918;52.092;5.232;2023-06-10T15:39:46;34.00;79.50
17599;DHT22;8918;52.092;5.232;2023-06-10T15:42:12;34.00;79.10
17599;DHT22;8918;52.092;5.232;2023-06-10T15:44:38;34.10;78.80
17599;DHT22;8918;52.092;5.232;2023-06-10T15:47:04;34.20;78.90
17599;DHT22;8918;52.092;5.232;2023-06-10T15:49:29;34.50;78.70
17599;DHT22;8918;52.092;5.232;2023-06-10T15:51:55;34.60;77.80
17599;DHT22;8918;52.092;5.232;2023-06-10T15:54:20;34.80;77.80
17599;DHT22;8918;52.092;5.232;2023-06-10T15:56:46;34.80;77.50
17599;DHT22;8918;52.092;5.232;2023-06-10T15:59:12;34.70;77.10
17599;DHT22;8918;52.092;5.232;2023-06-10T16:01:37;34.80;78.20
17599;DHT22;8918;52.092;5.232;2023-06-10T16:04:03;34.80;77.00
17599;DHT22;8918;52.092;5.232;2023-06-10T16:06:28;34.80;76.90
17599;DHT22;8918;52.092;5.232;2023-06-10T16:08:55;34.90;76.70
17599;DHT22;8918;52.092;5.232;2023-06-10T16:11:20;34.80;76.10
17599;DHT22;8918;52.092;5.232;2023-06-10T16:13:47;34.60;77.20